Flight Track Log - Related Links

Times and Time Zones

All times are in EDT time to prevent confusion due to time zone crossing. See the DAL151 flight status page for this flight to view local times or setup timezone preferences in your user account.

Time Position Orientation Groundspeed Altitude Reporting Facility
EDT Latitude Longitude Course Direction KTS MPH feet Rate Location/Type
Sat 05:13:25 PM 33.6370 -84.4270 180° South 15 17  Level FlightAware ADS-B
Sat 05:14:39 PM 33.6370 -84.4230 90° East 28 32 141 Level FlightAware ADS-B
Sat 05:15:18 PM 33.6370 -84.4220 90° East 13 15 156 Level FlightAware ADS-B
Sat 05:15:42 PM 33.6360 -84.4220 180° South 23 26 165 Level FlightAware ADS-B
Sat 05:16:09 PM 33.6360 -84.4200 90° East 32 37 171 Level FlightAware ADS-B
Sat 05:16:51 PM 33.6360 -84.4170 90° East 28 32 179 Level FlightAware ADS-B
Sat 05:17:21 PM 33.6360 -84.4150 90° East 20 23 192 Level FlightAware ADS-B
Sat 05:19:53 PM 33.6360 -84.4140 180° South 10 12 203 Level FlightAware ADS-B
Sat 05:20:00 PM 33.4128 -84.2667 180° South  Level FlightAware Approximate
Sat 05:20:21 PM 33.6360 -84.4130 90° East 14 16  Level FlightAware ADS-B
Sat 05:21:09 PM 33.6360 -84.4120 90° East 2 2 307 Level FlightAware ADS-B
Sat 05:22:45 PM 33.6360 -84.4110 90° East 17 20 355 Level FlightAware ADS-B
Sat 05:23:45 PM 33.6360 -84.4100 90° East 2 2 519 Level FlightAware ADS-B
Sat 05:24:25 PM 33.6360 -84.4090 90° East 13 15 730 Level FlightAware ADS-B
Sat 05:24:41 PM 33.6350 -84.4090 180° South 22 25 1,000 Level FlightAware ADS-B
Sat 05:25:43 PM 33.6350 -84.4200 270° West 115 132 1,174 Level FlightAware ADS-B
Sat 05:26:13 PM 33.6350 -84.4460 270° West 162 186 1,800 3,000 Climbing FlightAware ADS-B
Sat 05:26:39 PM 33.6360 -84.4700 273° West 166 191 2,800 1,525 Climbing FlightAware ADS-B
Sat 05:27:12 PM 33.6350 -84.4990 268° West 193 222 3,300 933 Climbing FlightAware ADS-B
Sat 05:27:24 PM 33.6340 -84.5130 265° West 208 239 3,500 1,024 Climbing FlightAware ADS-B
Sat 05:27:53 PM 33.6330 -84.5490 268° West 233 268 4,000 1,404 Climbing FlightAware ADS-B
Sat 05:28:11 PM 33.6330 -84.5800 270° West 262 302 4,600 2,478 Climbing FlightAware ADS-B
Sat 05:28:39 PM 33.6330 -84.6210 270° West 264 304 5,900 2,735 Climbing FlightAware ADS-B
Sat 05:29:19 PM 33.6170 -84.6740 250° West 266 306 7,700 2,520 Climbing FlightAware ADS-B
Sat 05:29:29 PM 33.6060 -84.6830 214° Southwest 275 316 8,000 2,211 Climbing FlightAware ADS-B
Sat 05:29:57 PM 33.5740 -84.7000 204° Southwest 285 328 9,100 1,882 Climbing FlightAware ADS-B
Sat 05:34:35 PM 33.1900 -84.4550 152° Southeast 378 435 17,600 1,658 Climbing FlightAware ADS-B
Sat 05:35:19 PM 33.1150 -84.4180 158° South 409 471 18,000 1,180 Climbing FlightAware ADS-B
Sat 05:36:37 PM 32.9780 -84.3490 157° South 419 482 20,000 1,431 Climbing FlightAware ADS-B
Sat 05:37:29 PM 32.8830 -84.3020 157° South 427 491 21,100 1,304 Climbing FlightAware ADS-B
Sat 05:38:09 PM 32.8080 -84.2650 157° South 432 497 22,000 1,317 Climbing FlightAware ADS-B
Sat 05:38:51 PM 32.7290 -84.2250 157° South 439 505 22,900 1,171 Climbing FlightAware ADS-B
Sat 05:39:31 PM 32.6540 -84.1880 157° South 444 511 23,600 1,244 Climbing FlightAware ADS-B
Sat 05:40:13 PM 32.5730 -84.1480 157° South 445 512 24,600 1,286 Climbing FlightAware ADS-B
Sat 05:41:09 PM 32.4660 -84.0950 157° South 448 516 25,700 1,109 Climbing FlightAware ADS-B
Sat 05:41:45 PM 32.3990 -84.0620 157° South 453 521 26,300 539 Climbing FlightAware ADS-B
Sat 05:42:38 PM 32.3090 -84.0170 157° South 455 524 26,500 848 Climbing FlightAware ADS-B
Sat 05:43:17 PM 32.2160 -83.9720 158° South 468 539 27,600 1,333 Climbing FlightAware ADS-B
Sat 05:43:59 PM 32.1310 -83.9310 158° South 471 542 28,300 923 Climbing FlightAware ADS-B
Sat 05:44:35 PM 32.0590 -83.8950 157° South 475 547 28,800 677 Climbing FlightAware ADS-B
Sat 05:46:03 PM 31.8958 -83.8175 157° South 478 550 29,700 811 Climbing Jacksonville Center
Sat 05:47:03 PM 31.7731 -83.7578 158° South 478 550 30,800 950 Climbing Jacksonville Center
Sat 05:48:03 PM 31.6525 -83.6956 156° South 472 543 31,600 942 Climbing Jacksonville Center
Sat 05:49:04 PM 31.5131 -83.6308 158° South 483 556 32,700 900 Climbing Jacksonville Center
Sat 05:50:03 PM 31.3922 -83.5742 158° South 478 550 33,400 706 Climbing Jacksonville Center
Sat 05:51:03 PM 31.2736 -83.5147 157° South 472 543 34,100 689 Climbing Jacksonville Center
Sat 05:52:05 PM 31.1528 -83.4581 158° South 472 543 34,800 800 Climbing Jacksonville Center
Sat 05:53:03 PM 31.0317 -83.4017 158° South 472 543 35,700 756 Climbing Jacksonville Center
Sat 05:54:04 PM 30.9131 -83.3431 157° South 467 537 36,300 500 Climbing Jacksonville Center
Sat 05:55:03 PM 30.8089 -83.2917 157° South 467 537 36,700 353 Climbing Jacksonville Center
Sat 05:56:03 PM 30.6900 -83.2331 157° South 467 537 37,000 149 Climbing Jacksonville Center
Sat 05:57:04 PM 30.5689 -83.1725 157° South 467 537 37,000  Level Jacksonville Center
Sat 05:58:04 PM 30.4481 -83.1119 157° South 467 537 37,000  Level Jacksonville Center
Sat 05:59:03 PM 30.3311 -83.0539 157° South 467 537 37,000  Level Jacksonville Center
Sat 06:00:03 PM 30.2122 -82.9936 156° South 462 532 37,000  Level Jacksonville Center
Sat 06:01:04 PM 30.0933 -82.9333 156° South 457 526 37,000  Level Jacksonville Center
Sat 06:02:03 PM 29.9575 -82.8711 158° South 469 540 37,000  Level Jacksonville Center
Sat 06:03:03 PM 29.8364 -82.8111 157° South 481 554 37,000  Level Jacksonville Center
Sat 06:08:31 PM 29.1870 -82.4910 157° South 470 541 37,000  Level FlightAware ADS-B
Sat 06:09:11 PM 29.1190 -82.4580 157° South 470 541 37,000  Level FlightAware ADS-B
Sat 06:09:54 PM 29.0200 -82.4410 171° South 460 529 37,000  Level FlightAware ADS-B
Sat 06:11:18 PM 28.8290 -82.4270 176° South 37,000  Level FlightAware ADS-B
Sat 06:12:00 PM 28.7380 -82.4200 176° South 471 542 37,000  Level FlightAware ADS-B
Sat 06:12:42 PM 28.6460 -82.4140 177° South 472 543 37,000  Level FlightAware ADS-B
Sat 06:13:24 PM 28.5550 -82.4070 176° South 473 544 37,000  Level FlightAware ADS-B
Sat 06:14:06 PM 28.4590 -82.4000 176° South 474 545 37,000  Level FlightAware ADS-B
Sat 06:15:22 PM 28.3047 -82.3903 176° South 477 549 37,000  Level Miami Center
Sat 06:20:49 PM 27.6760 -82.2630 176° South 472 543 37,000  Level FlightAware ADS-B
Sat 06:21:22 PM 27.5444 -82.1917 176° South 471 542 37,000  Level Miami Center
Sat 06:22:22 PM 27.4019 -82.1525 166° South 477 549 37,000  Level Miami Center
Sat 06:23:22 PM 27.2739 -82.1161 166° South 477 549 37,000  Level Miami Center
Sat 06:24:22 PM 27.1458 -82.0800 166° South 477 549 37,000  Level Miami Center
Sat 06:25:22 PM 27.0319 -82.0492 166° South 471 542 37,000  Level Miami Center
Sat 06:30:59 PM 26.4550 -81.8860 166° South 475 547 37,000  Level FlightAware ADS-B
Sat 06:31:43 PM 26.2050 -81.8160 166° South 468 539 37,000  Level FlightAware ADS-B
Sat 06:32:23 PM 26.1260 -81.7950 167° South 477 549 37,000  Level FlightAware ADS-B
Sat 06:33:09 PM 26.0980 -81.7870 166° South 477 549 37,000  Level FlightAware ADS-B
Sat 06:33:54 PM 26.0200 -81.7650 166° South 477 549 37,000  Level FlightAware ADS-B
Sat 06:34:36 PM 25.9360 -81.7420 166° South 476 548 37,000  Level FlightAware ADS-B
Sat 06:35:25 PM 25.7300 -81.6850 166° South 477 549 37,000  Level FlightAware ADS-B
Sat 06:36:25 PM 25.5970 -81.6490 166° South 481 554 37,000  Level FlightAware ADS-B
Sat 06:38:05 PM 25.3800 -81.5890 166° South 482 555 37,000  Level FlightAware ADS-B
Sat 06:38:50 PM 25.2860 -81.5640 166° South 482 555 37,000  Level FlightAware ADS-B
Sat 06:39:30 PM 25.1990 -81.5400 166° South 481 554 37,000  Level FlightAware ADS-B
Sat 06:40:10 PM 25.1110 -81.5170 167° South 482 555 37,000  Level FlightAware ADS-B
Sat 06:41:00 PM 25.0000 -81.4860 166° South 484 557 37,000  Level FlightAware ADS-B
Sat 06:41:45 PM 24.9070 -81.4610 166° South 478 550 37,000  Level FlightAware ADS-B
Sat 06:42:55 PM 24.7490 -81.4180 166° South 479 551 37,000  Level FlightAware ADS-B
Sat 06:49:20 PM 23.9410 -81.2400 169° South 483 556 37,000  Level FlightAware ADS-B
Sat 06:50:05 PM 23.8160 -81.2460 183° South 479 551 37,000  Level FlightAware ADS-B
Sat 06:50:56 PM 23.7020 -81.2520 183° South 470 541 37,000  Level FlightAware ADS-B
Sat 06:52:21 PM 23.5140 -81.2600 182° South 469 540 37,000  Level FlightAware ADS-B
Sat 06:53:01 PM 23.4270 -81.2640 182° South 468 539 37,000  Level FlightAware ADS-B
Sat 06:53:41 PM 23.3370 -81.2690 183° South 469 540 37,000  Level FlightAware ADS-B
Sat 06:54:26 PM 23.2420 -81.2730 182° South 479 551 37,000  Level FlightAware ADS-B
Sat 06:55:21 PM 23.1220 -81.2780 182° South 479 551 37,000  Level FlightAware ADS-B
Sat 06:56:01 PM 23.0300 -81.2830 183° South 468 539 37,000  Level FlightAware ADS-B
Sat 06:56:59 PM 22.9160 -81.2880 182° South 466 536 37,000  Level FlightAware ADS-B
Sat 06:58:16 PM 22.7470 -81.2950 182° South 466 536 37,000 11 Level FlightAware ADS-B
Sat 07:00:00 PM 22.5187 -81.2640 173° South  Level Estimated
Sat 07:01:00 PM 22.3870 -81.2462 173° South  Level Estimated
Sat 07:02:00 PM 22.2553 -81.2284 173° South  Level Estimated
Sat 07:03:00 PM 22.1236 -81.2107 173° South  Level Estimated
Sat 07:04:00 PM 21.9918 -81.1930 173° South  Level Estimated
Sat 07:05:00 PM 21.8601 -81.1753 173° South  Level Estimated
Sat 07:06:00 PM 21.7284 -81.1577 173° South  Level Estimated
Sat 07:07:00 PM 21.5967 -81.1401 173° South  Level Estimated
Sat 07:08:00 PM 21.4650 -81.1225 173° South  Level Estimated
Sat 07:09:00 PM 21.3332 -81.1049 173° South  Level Estimated
Sat 07:10:00 PM 21.2015 -81.0874 173° South  Level Estimated
Sat 07:11:00 PM 21.0698 -81.0699 173° South  Level Estimated
Sat 07:12:00 PM 20.9380 -81.0525 173° South  Level Estimated
Sat 07:13:00 PM 20.8063 -81.0350 173° South  Level Estimated
Sat 07:14:00 PM 20.6745 -81.0176 173° South  Level Estimated
Sat 07:15:00 PM 20.5428 -81.0003 173° South  Level Estimated
Sat 07:16:00 PM 20.4111 -80.9829 173° South  Level Estimated
Sat 07:17:00 PM 20.2793 -80.9656 173° South  Level Estimated
Sat 07:18:00 PM 20.1476 -80.9483 173° South  Level Estimated
Sat 07:19:00 PM 20.0158 -80.9311 173° South  Level Estimated
Sat 07:20:00 PM 19.8841 -80.9138 173° South  Level Estimated
Sat 07:21:00 PM 19.7523 -80.8967 173° South  Level Estimated
Sat 07:22:00 PM 19.6206 -80.8795 173° South  Level Estimated
Sat 07:23:00 PM 19.4888 -80.8624 173° South  Level Estimated
Sat 07:24:00 PM 19.3571 -80.8453 173° South  Level Estimated
Sat 07:25:00 PM 19.2253 -80.8282 173° South  Level Estimated
Sat 07:26:00 PM 19.0936 -80.8111 173° South  Level Estimated
Sat 07:27:00 PM 18.9618 -80.7941 173° South  Level Estimated
Sat 07:28:00 PM 18.8300 -80.7771 173° South  Level Estimated
Sat 07:29:00 PM 18.6983 -80.7601 173° South  Level Estimated
Sat 07:30:00 PM 18.5665 -80.7432 173° South  Level Estimated
Sat 07:31:00 PM 18.4348 -80.7263 173° South  Level Estimated
Sat 07:32:00 PM 18.3030 -80.7094 173° South  Level Estimated
Sat 07:33:00 PM 18.1712 -80.6925 173° South  Level Estimated
Sat 07:34:00 PM 18.0395 -80.6757 173° South  Level Estimated
Sat 07:35:00 PM 17.9077 -80.6589 173° South  Level Estimated
Sat 07:36:00 PM 17.7759 -80.6421 173° South  Level Estimated
Sat 07:37:00 PM 17.6441 -80.6253 173° South  Level Estimated
Sat 07:38:00 PM 17.5124 -80.6086 173° South  Level Estimated
Sat 07:39:00 PM 17.3806 -80.5918 173° South  Level Estimated
Sat 07:40:00 PM 17.2488 -80.5751 173° South  Level Estimated
Sat 07:41:00 PM 17.1170 -80.5585 173° South  Level Estimated
Sat 07:42:00 PM 16.9853 -80.5418 173° South  Level Estimated
Sat 07:43:00 PM 16.8535 -80.5252 173° South  Level Estimated
Sat 07:44:00 PM 16.7217 -80.5086 173° South  Level Estimated
Sat 07:45:00 PM 16.5899 -80.4920 173° South  Level Estimated
Sat 07:46:00 PM 16.4581 -80.4755 173° South  Level Estimated
Sat 07:47:00 PM 16.3263 -80.4589 173° South  Level Estimated
Sat 07:48:00 PM 16.1945 -80.4424 173° South  Level Estimated
Sat 07:49:00 PM 16.0628 -80.4259 173° South  Level Estimated
Sat 07:50:00 PM 15.9310 -80.4095 173° South  Level Estimated
Sat 07:51:00 PM 15.7992 -80.3931 173° South  Level Estimated
Sat 07:52:00 PM 15.6674 -80.3766 173° South  Level Estimated
Sat 07:53:00 PM 15.5356 -80.3602 173° South  Level Estimated
Sat 07:54:00 PM 15.4038 -80.3438 173° South  Level Estimated
Sat 07:55:00 PM 15.2720 -80.3275 173° South  Level Estimated
Sat 07:56:00 PM 15.1402 -80.3111 173° South  Level Estimated
Sat 07:57:00 PM 15.0084 -80.2948 173° South  Level Estimated
Sat 07:58:00 PM 14.8766 -80.2785 173° South  Level Estimated
Sat 07:59:00 PM 14.7448 -80.2623 173° South  Level Estimated
Sat 08:00:00 PM 14.6130 -80.2460 173° South  Level Estimated
Sat 08:01:00 PM 14.4812 -80.2298 173° South  Level Estimated
Sat 08:02:00 PM 14.3494 -80.2135 173° South  Level Estimated
Sat 08:03:00 PM 14.2176 -80.1973 173° South  Level Estimated
Sat 08:04:00 PM 14.0858 -80.1812 173° South  Level Estimated
Sat 08:05:00 PM 13.9540 -80.1650 173° South  Level Estimated
Sat 08:06:00 PM 13.8222 -80.1488 173° South  Level Estimated
Sat 08:07:00 PM 13.6903 -80.1327 173° South  Level Estimated
Sat 08:08:00 PM 13.5585 -80.1166 173° South  Level Estimated
Sat 08:09:00 PM 13.4267 -80.1005 173° South  Level Estimated
Sat 08:10:00 PM 13.2949 -80.0844 173° South  Level Estimated
Sat 08:11:00 PM 13.1631 -80.0684 173° South  Level Estimated
Sat 08:12:00 PM 13.0313 -80.0524 173° South  Level Estimated
Sat 08:13:00 PM 12.8995 -80.0363 173° South  Level Estimated
Sat 08:14:00 PM 12.7676 -80.0203 173° South  Level Estimated
Sat 08:15:00 PM 12.6358 -80.0043 173° South  Level Estimated
Sat 08:16:00 PM 12.5040 -79.9884 173° South  Level Estimated
Sat 08:17:00 PM 12.3722 -79.9724 173° South  Level Estimated
Sat 08:18:00 PM 12.2404 -79.9565 173° South  Level Estimated
Sat 08:19:00 PM 12.1085 -79.9406 173° South  Level Estimated
Sat 08:20:00 PM 11.9767 -79.9247 173° South  Level Estimated
Sat 08:21:00 PM 11.8449 -79.9088 173° South  Level Estimated
Sat 08:22:00 PM 11.7131 -79.8929 173° South  Level Estimated
Sat 08:23:00 PM 11.5813 -79.8770 173° South  Level Estimated
Sat 08:24:00 PM 11.4494 -79.8612 173° South  Level Estimated
Sat 08:25:00 PM 11.3176 -79.8454 173° South  Level Estimated
Sat 08:26:00 PM 11.1858 -79.8295 173° South  Level Estimated
Sat 08:27:00 PM 11.0539 -79.8137 173° South  Level Estimated
Sat 08:28:00 PM 10.9221 -79.7979 173° South  Level Estimated
Sat 08:29:00 PM 10.7903 -79.7822 173° South  Level Estimated
Sat 08:30:00 PM 10.6584 -79.7664 173° South  Level Estimated
Sat 08:31:00 PM 10.5266 -79.7507 173° South  Level Estimated
Sat 08:32:00 PM 10.3948 -79.7349 173° South  Level Estimated
Sat 08:33:00 PM 10.2629 -79.7192 173° South  Level Estimated
Sat 08:34:00 PM 10.1311 -79.7035 173° South  Level Estimated
Sat 08:35:00 PM 9.9993 -79.6878 173° South  Level Estimated
Sat 08:36:00 PM 9.8674 -79.6721 173° South  Level Estimated
Sat 08:37:00 PM 9.7356 -79.6565 173° South  Level Estimated
Sat 08:38:00 PM 9.6038 -79.6408 173° South  Level Estimated
Sat 08:39:00 PM 9.4719 -79.6252 173° South  Level Estimated
Sat 08:40:00 PM 9.3401 -79.6095 173° South  Level Estimated
Sat 08:41:00 PM 9.2082 -79.5939 173° South  Level Estimated
Sat 08:42:00 PM 9.0764 -79.5783 173° South  Level Estimated
Sat 08:43:00 PM 8.9446 -79.5627 173° South  Level Estimated
Sat 08:44:00 PM 8.8127 -79.5471 173° South  Level Estimated
Sat 08:45:00 PM 8.6809 -79.5315 173° South  Level Estimated
Sat 08:46:00 PM 8.5490 -79.5160 173° South  Level Estimated
Sat 08:47:00 PM 8.4172 -79.5004 173° South  Level Estimated
Sat 08:48:00 PM 8.2854 -79.4849 173° South  Level Estimated
Sat 08:49:00 PM 8.1535 -79.4694 173° South  Level Estimated
Sat 08:50:00 PM 8.0217 -79.4538 173° South  Level Estimated
Sat 08:51:00 PM 7.8898 -79.4383 173° South  Level Estimated
Sat 08:52:00 PM 7.7580 -79.4228 173° South  Level Estimated
Sat 08:53:00 PM 7.6261 -79.4073 173° South  Level Estimated
Sat 08:54:00 PM 7.4943 -79.3919 173° South  Level Estimated
Sat 08:55:00 PM 7.3624 -79.3764 173° South  Level Estimated
Sat 08:56:00 PM 7.2306 -79.3609 173° South  Level Estimated
Sat 08:57:00 PM 7.0987 -79.3455 173° South  Level Estimated
Sat 08:58:00 PM 6.9669 -79.3300 173° South  Level Estimated
Sat 08:59:00 PM 6.8350 -79.3146 173° South  Level Estimated
Sat 09:00:00 PM 6.7032 -79.2992 173° South  Level Estimated
Sat 09:01:00 PM 6.5713 -79.2838 173° South  Level Estimated
Sat 09:02:00 PM 6.4395 -79.2683 173° South  Level Estimated
Sat 09:03:00 PM 6.3076 -79.2529 173° South  Level Estimated
Sat 09:04:00 PM 6.1758 -79.2375 173° South  Level Estimated
Sat 09:05:00 PM 6.0439 -79.2222 173° South  Level Estimated
Sat 09:06:00 PM 5.9121 -79.2068 173° South  Level Estimated
Sat 09:07:00 PM 5.7802 -79.1914 173° South  Level Estimated
Sat 09:08:00 PM 5.6484 -79.1760 173° South  Level Estimated
Sat 09:09:00 PM 5.5165 -79.1607 173° South  Level Estimated
Sat 09:10:00 PM 5.3847 -79.1453 173° South  Level Estimated
Sat 09:11:00 PM 5.2528 -79.1300 173° South  Level Estimated
Sat 09:12:00 PM 5.1209 -79.1146 173° South  Level Estimated
Sat 09:13:00 PM 4.9891 -79.0993 173° South  Level Estimated
Sat 09:14:00 PM 4.8572 -79.0840 173° South  Level Estimated
Sat 09:15:00 PM 4.7254 -79.0686 173° South  Level Estimated
Sat 09:16:00 PM 4.5935 -79.0533 173° South  Level Estimated
Sat 09:17:00 PM 4.4616 -79.0380 173° South  Level Estimated
Sat 09:18:00 PM 4.3298 -79.0227 173° South  Level Estimated
Sat 09:19:00 PM 4.1979 -79.0074 173° South  Level Estimated
Sat 09:20:00 PM 4.0661 -78.9921 173° South  Level Estimated
Sat 09:21:00 PM 3.9342 -78.9769 173° South  Level Estimated
Sat 09:22:00 PM 3.8023 -78.9616 173° South  Level Estimated
Sat 09:23:00 PM 3.6705 -78.9463 173° South  Level Estimated
Sat 09:24:00 PM 3.5386 -78.9310 173° South  Level Estimated
Sat 09:25:00 PM 3.4068 -78.9157 173° South  Level Estimated
Sat 09:26:00 PM 3.2749 -78.9005 173° South  Level Estimated
Sat 09:27:00 PM 3.1430 -78.8852 173° South  Level Estimated
Sat 09:28:00 PM 3.0112 -78.8700 173° South  Level Estimated
Sat 09:29:00 PM 2.8793 -78.8547 173° South  Level Estimated
Sat 09:30:00 PM 2.7475 -78.8395 173° South  Level Estimated
Sat 09:31:00 PM 2.6156 -78.8242 173° South  Level Estimated
Sat 09:32:00 PM 2.4837 -78.8090 173° South  Level Estimated
Sat 09:33:00 PM 2.3519 -78.7937 173° South  Level Estimated
Sat 09:34:00 PM 2.2200 -78.7785 173° South  Level Estimated
Sat 09:35:00 PM 2.0882 -78.7633 173° South  Level Estimated
Sat 09:36:00 PM 1.9563 -78.7480 173° South  Level Estimated
Sat 09:37:00 PM 1.8244 -78.7328 173° South  Level Estimated
Sat 09:38:00 PM 1.6926 -78.7176 173° South  Level Estimated
Sat 09:39:00 PM 1.5607 -78.7023 173° South  Level Estimated
Sat 09:40:00 PM 1.4289 -78.6871 173° South  Level Estimated
Sat 09:41:00 PM 1.2970 -78.6719 173° South  Level Estimated
Sat 09:42:00 PM 1.1651 -78.6567 173° South  Level Estimated
Sat 09:43:00 PM 1.0333 -78.6414 173° South  Level Estimated
Sat 09:44:00 PM 0.9014 -78.6262 173° South  Level Estimated
Sat 09:45:00 PM 0.7696 -78.6110 173° South  Level Estimated
Sat 09:46:00 PM 0.6377 -78.5958 173° South  Level Estimated
Sat 09:47:00 PM 0.5058 -78.5806 173° South  Level Estimated
Sat 09:48:00 PM 0.3740 -78.5654 173° South  Level Estimated
Sat 09:49:00 PM 0.2421 -78.5501 173° South  Level Estimated
Sat 09:50:00 PM 0.1103 -78.5349 173° South  Level Estimated
Sat 09:51:00 PM -0.0216 -78.5197 173° South  Level Estimated
Sat 09:52:00 PM -0.1535 -78.5045 173° South  Level Estimated
Sat 09:53:00 PM -0.2853 -78.4893 173° South  Level Estimated
Sat 09:54:00 PM -0.4172 -78.4741 173° South  Level Estimated
Sat 09:55:00 PM -0.5490 -78.4589 173° South  Level Estimated
Sat 09:56:00 PM -0.6809 -78.4437 173° South  Level Estimated
Sat 09:57:00 PM -0.8128 -78.4284 173° South  Level Estimated
Sat 09:57:11 PM -1.4920 -79.8610 173° South 498 573 39,000  Level FlightAware ADS-B
Sat 09:57:53 PM -1.6330 -79.8620 180° South 499 574 39,000  Level FlightAware ADS-B
Sat 09:58:00 PM -0.9446 -78.4132 173° South  Level Estimated
Sat 09:58:33 PM -1.7190 -79.8630 181° South 500 575 39,000  Level FlightAware ADS-B
Sat 09:59:18 PM -1.8280 -79.8640 181° South 500 575 39,000  Level FlightAware ADS-B
Sat 10:01:00 PM -2.0461 -79.8062 165° South  Level Estimated
Sat 10:02:00 PM -2.1744 -79.7721 165° South  Level Estimated
Sat 10:03:00 PM -2.3027 -79.7381 165° South  Level Estimated
Sat 10:04:00 PM -2.4310 -79.7040 165° South  Level Estimated
Sat 10:05:00 PM -2.5593 -79.6700 165° South  Level Estimated
Sat 10:06:00 PM -2.6876 -79.6359 165° South  Level Estimated
Sat 10:07:00 PM -2.8159 -79.6018 165° South  Level Estimated
Sat 10:08:00 PM -2.9442 -79.5677 165° South  Level Estimated
Sat 10:09:00 PM -3.0725 -79.5337 165° South  Level Estimated
Sat 10:09:06 PM -3.0960 -79.7450 165° South 499 574 39,000  Level FlightAware ADS-B
Sat 10:09:50 PM -3.2760 -79.7220 173° South 500 575 39,000  Level FlightAware ADS-B
Sat 10:10:29 PM -3.3750 -79.7090 173° South 497 572 39,000  Level FlightAware ADS-B
Sat 10:12:11 PM -3.5490 -79.6870 173° South 495 570 39,000  Level FlightAware ADS-B
Sat 10:12:47 PM -3.6190 -79.6790 173° South 495 570 39,000  Level FlightAware ADS-B
Sat 10:13:35 PM -3.7110 -79.6670 173° South 495 570 39,000  Level FlightAware ADS-B
Sat 10:14:12 PM -3.7830 -79.6590 174° South 495 570 39,000  Level FlightAware ADS-B
Sat 10:14:58 PM -3.8720 -79.6480 173° South 495 570 39,000  Level FlightAware ADS-B
Sat 10:17:00 PM -4.1302 -79.5691 163° South  Level Estimated
Sat 10:17:29 PM -4.1640 -79.6120 163° South 495 570 39,000  Level FlightAware ADS-B
Sat 10:20:00 PM -4.4829 -79.5123 163° South  Level Estimated
Sat 10:21:00 PM -4.6073 -79.4734 163° South  Level Estimated
Sat 10:21:27 PM -4.6230 -79.5550 163° South 495 570 39,000  Level FlightAware ADS-B
Sat 10:24:00 PM -4.9392 -79.4524 162° South  Level Estimated
Sat 10:25:00 PM -5.0632 -79.4121 162° South  Level Estimated
Sat 10:26:00 PM -5.1872 -79.3719 162° South  Level Estimated
Sat 10:27:00 PM -5.3112 -79.3316 162° South  Level Estimated
Sat 10:28:00 PM -5.4352 -79.2913 162° South  Level Estimated
Sat 10:29:00 PM -5.5591 -79.2510 162° South  Level Estimated
Sat 10:30:00 PM -5.6831 -79.2106 162° South  Level Estimated
Sat 10:31:00 PM -5.8071 -79.1702 162° South  Level Estimated
Sat 10:32:00 PM -5.9311 -79.1299 162° South  Level Estimated
Sat 10:33:00 PM -6.0550 -79.0895 162° South  Level Estimated
Sat 10:34:00 PM -6.1790 -79.0491 162° South  Level Estimated
Sat 10:35:00 PM -6.3030 -79.0086 162° South  Level Estimated
Sat 10:36:00 PM -6.4269 -78.9682 162° South  Level Estimated
Sat 10:37:00 PM -6.5509 -78.9277 162° South  Level Estimated
Sat 10:38:00 PM -6.6748 -78.8872 162° South  Level Estimated
Sat 10:39:00 PM -6.7988 -78.8467 162° South  Level Estimated
Sat 10:40:00 PM -6.9227 -78.8062 162° South  Level Estimated
Sat 10:41:00 PM -7.0467 -78.7656 162° South  Level Estimated
Sat 10:42:00 PM -7.1706 -78.7251 162° South  Level Estimated
Sat 10:43:00 PM -7.2946 -78.6845 162° South  Level Estimated
Sat 10:44:00 PM -7.4185 -78.6438 162° South  Level Estimated
Sat 10:45:00 PM -7.5424 -78.6032 162° South  Level Estimated
Sat 10:46:00 PM -7.6664 -78.5625 162° South  Level Estimated
Sat 10:47:00 PM -7.7903 -78.5218 162° South  Level Estimated
Sat 10:48:00 PM -7.9142 -78.4811 162° South  Level Estimated
Sat 10:49:00 PM -8.0381 -78.4404 162° South  Level Estimated
Sat 10:50:00 PM -8.1621 -78.3996 162° South  Level Estimated
Sat 10:51:00 PM -8.2860 -78.3588 162° South  Level Estimated
Sat 10:52:00 PM -8.4099 -78.3180 162° South  Level Estimated
Sat 10:53:00 PM -8.5338 -78.2772 162° South  Level Estimated
Sat 10:54:00 PM -8.6577 -78.2363 162° South  Level Estimated
Sat 10:55:00 PM -8.7816 -78.1954 162° South  Level Estimated
Sat 10:56:00 PM -8.9054 -78.1545 162° South  Level Estimated
Sat 10:57:00 PM -9.0293 -78.1136 162° South  Level Estimated
Sat 10:58:00 PM -9.1532 -78.0726 162° South  Level Estimated
Sat 10:59:00 PM -9.2771 -78.0316 162° South  Level Estimated
Sat 11:00:00 PM -9.4009 -77.9905 162° South  Level Estimated
Sat 11:01:00 PM -9.5248 -77.9495 162° South  Level Estimated
Sat 11:02:00 PM -9.6487 -77.9084 162° South  Level Estimated
Sat 11:03:00 PM -9.7725 -77.8673 162° South  Level Estimated
Sat 11:04:00 PM -9.8964 -77.8261 162° South  Level Estimated
Sat 11:05:00 PM -10.0202 -77.7849 162° South  Level Estimated
Sat 11:06:00 PM -10.1440 -77.7437 162° South  Level Estimated
Sat 11:07:00 PM -10.2679 -77.7025 162° South  Level Estimated
Sat 11:08:00 PM -10.3917 -77.6612 162° South  Level Estimated
Sat 11:09:00 PM -10.5155 -77.6199 162° South  Level Estimated
Sat 11:10:00 PM -10.6393 -77.5785 162° South  Level Estimated
Sat 11:11:00 PM -10.7632 -77.5371 162° South  Level Estimated
Sat 11:12:00 PM -10.8870 -77.4957 162° South  Level Estimated
Sat 11:13:00 PM -11.0108 -77.4543 162° South  Level Estimated
Sat 11:14:00 PM -11.1346 -77.4128 162° South  Level Estimated
Sat 11:14:51 PM -11.5070 -77.3680 162° South 306 352 7,200  Level FlightAware ADS-B
Sat 11:15:00 PM -11.2584 -77.3713 162° South  Level Estimated
Sat 11:15:21 PM -11.5390 -77.3520 154° Southeast 306 352 7,200  Level FlightAware ADS-B
Sat 11:17:00 PM -11.7327 -77.2568 154° Southeast  Level Estimated
Sat 11:18:00 PM -11.8501 -77.1990 154° Southeast  Level Estimated
Sat 11:19:00 PM -11.9675 -77.1411 154° Southeast  Level Estimated
Sat 11:20:00 PM -12.0219 -77.1143 154° Southeast  Level Estimated
Sat 11:21:00 PM -12.0219 -77.1143 44° Northeast  Level Estimated
Sat 11:22:00 PM -12.0219 -77.1143 44° Northeast  Level Estimated
Sat 11:23:00 PM -12.0219 -77.1143 44° Northeast  Level Estimated
Sat 11:24:00 PM -12.0219 -77.1143 44° Northeast  Level Estimated

Login

Don't have an account? Register now (free) for customized features, flight alerts, and more!